Bloomington, IN (47408)

7:57 PM EDT on April 20, 2018 (GMT -0400)
Griffy Creek Farm | | Change Station
Active Advisory: Special Statement

Elev 850 ft 39.21 °N, 86.48 °W | Updated 3 seconds ago

Clear
Clear
59.0 °F
Feels Like 59.0 °F
N
0.0
Wind Variable Wind from ESE
Gusts 0.0 mph

Today
High -- | Low -- °F
--% Chance of Precip.
Yesterday
High -- | Low -- °F
Precip. -- in
Pressure 30.40 in
Visibility 10.0 miles
Clouds Clear
Dew Point 31 °F
Humidity 34%
Rainfall 0.00 in
Snow Depth Not available.
7:01 AM 8:28 PM
Waxing Crescent, 29% visible
METAR KBMG 202353Z 05007KT 10SM CLR 14/M05 A3039 RMK AO2 SLP292 T01391050 10172 20139 57004
Pressure 30.40 in
Visibility 10.0 miles
Clouds Clear
Dew Point 31 °F
Humidity 34%
Rainfall 0.00 in
Snow Depth Not available.
7:01 AM 8:28 PM
Waxing Crescent, 29% visible
METAR KBMG 202353Z 05007KT 10SM CLR 14/M05 A3039 RMK AO2 SLP292 T01391050 10172 20139 57004

Get Your Daily Forecast Email!

Thanks for signing up!

Be on the lookout for a verification email in your inbox.

You'll start receiving severe weather alerts in your inbox..

×

10-Day Weather Forecast

Almanac

Astronomy

Apr. 20, 2018 Rise Set
Actual Time
Civil Twilight
Nautical Twilight
Astronomical Twilight
Moon
Length of Visible Light
Length of Day
Tomorrow will be .
, % of the Moon is Illuminated

Today's Extremes

State Highs State Lows

Community

WunderPhotos

Category 6

Welcome to Category 6. This is the collective home for Weather Underground's featured writeups by Dr. Jeff Masters (right), Bob Henson (left), Chris Burt, and other regular contributors.

Nearby

Air Quality

  Air Quality AQ Index Pollutant
Not available.

Snow Depth

Station Depth Elevation

Earthquake Activity

City Distance Mag. Time & Date
Minimum magnitude displayed is 2.5.

Coastal Water Temperatures

Place Temperature

Stations

Nearby Weather Stations

Station Location Temp. Windchill Dew Point Humidity Wind Precip. Elev Updated Type
                   

Watches & Warnings

Special Statement
Issued: 3:31 PM EDT Apr. 20, 2018 – National Weather Service

... Patchy frost overnight into early Saturday...

Temperatures will fall into the mid and upper 30s overnight into
early Saturday. With light winds expected, patchy frost is
possible, especially in sheltered areas.

Take precautions to protect any frost sensitive vegetation
overnight and early Saturday.